Time;durP1;ratioP1;P1;durP2;ratioP2;P2;SDS_P1;SDS_P2;PMS_P1;PMS_P2;Temp;Humidity;BMP_temperature;BMP_pressure;BME280_temperature;BME280_humidity;BME280_pressure;Samples;Min_cycle;Max_cycle;Signal;HPM_P1;HPM_P2
2023/12/12 00:00:16;;;;;;;;;;;8.50;1.00;;;;;;4996821;28;19910;-75
2023/12/12 00:05:44;;;;;;;;;;;8.70;1.00;;;;;;5005862;28;19921;-80
2023/12/12 00:08:10;;;;;;;;;;;8.70;1.00;;;;;;5013639;28;19913;-80
2023/12/12 00:19:16;;;;;;;;;;;9.00;1.00;;;;;;4997626;28;19921;-80
2023/12/12 00:24:45;;;;;;;;;;;8.90;1.00;;;;;;4997845;28;19952;-79
2023/12/12 00:32:58;;;;;;;;;;;8.80;1.00;;;;;;4989803;28;20000;-75
2023/12/12 00:38:10;;;;;;;;;;;8.70;1.00;;;;;;5001773;28;20301;-75
2023/12/12 00:41:07;;;;;;;;;;;8.70;1.00;;;;;;4998499;28;19914;-75
2023/12/12 00:43:41;;;;;;;;;;;8.70;1.00;;;;;;4935071;29;19966;-76
2023/12/12 00:46:40;;;;;;;;;;;8.70;1.00;;;;;;4928382;29;20001;-75
2023/12/12 00:52:16;;;;;;;;;;;8.70;1.00;;;;;;4931414;29;19917;-80
2023/12/12 00:54:42;;;;;;;;;;;8.70;1.00;;;;;;4935173;29;19919;-80
2023/12/12 01:00:17;;;;;;;;;;;8.70;1.00;;;;;;4935172;29;19918;-80
2023/12/12 01:05:45;;;;;;;;;;;8.70;1.00;;;;;;4935135;29;19985;-80
2023/12/12 01:14:16;;;;;;;;;;;8.80;1.00;;;;;;4935093;29;20294;-80
2023/12/12 01:19:44;;;;;;;;;;;8.90;1.00;;;;;;4956115;28;19920;-80
2023/12/12 01:22:34;;;;;;;;;;;8.90;1.00;;;;;;4992920;28;19914;-80
2023/12/12 01:28:10;;;;;;;;;;;9.00;1.00;;;;;;5005204;28;19963;-80
2023/12/12 01:33:41;;;;;;;;;;;9.10;1.00;;;;;;4995194;28;19964;-75
2023/12/12 01:39:40;;;;;;;;;;;9.10;1.00;;;;;;4999313;28;20269;-75
2023/12/12 01:42:11;;;;;;;;;;;9.10;1.00;;;;;;5013892;28;19944;-75
2023/12/12 01:44:36;;;;;;;;;;;9.20;1.00;;;;;;4995311;28;19992;-75
2023/12/12 01:47:05;;;;;;;;;;;9.20;1.00;;;;;;4986674;28;20395;-75
2023/12/12 01:52:35;;;;;;;;;;;9.20;1.00;;;;;;4987161;28;19990;-80
2023/12/12 01:55:00;;;;;;;;;;;9.20;1.00;;;;;;4983265;28;19925;-80
2023/12/12 02:00:10;;;;;;;;;;;;;;;;;;4983440;28;19961;-80
2023/12/12 02:02:40;;;;;;;;;;;9.30;1.00;;;;;;5000575;28;19909;-76
2023/12/12 02:05:23;;;;;;;;;;;9.30;1.00;;;;;;5006267;28;20576;-76
2023/12/12 02:07:51;;;;;;;;;;;9.30;1.00;;;;;;5008542;28;19972;-75
2023/12/12 02:10:22;;;;;;;;;;;9.30;1.00;;;;;;4997875;28;20253;-75
2023/12/12 02:12:58;;;;;;;;;;;9.30;1.00;;;;;;5002503;28;19921;-75
2023/12/12 02:15:28;;;;;;;;;;;9.30;1.00;;;;;;5030830;28;19928;-76
2023/12/12 02:17:54;;;;;;;;;;;9.30;1.00;;;;;;5007620;28;19941;-76
2023/12/12 02:20:34;;;;;;;;;;;9.20;1.00;;;;;;5005747;28;19980;-75
2023/12/12 02:23:04;;;;;;;;;;;9.30;1.00;;;;;;4993029;28;19909;-76
2023/12/12 02:25:34;;;;;;;;;;;9.20;1.00;;;;;;4991887;28;19914;-75
2023/12/12 02:31:04;;;;;;;;;;;9.30;1.00;;;;;;4996371;28;19962;-75
2023/12/12 02:33:34;;;;;;;;;;;9.20;1.00;;;;;;4998633;28;19922;-80
2023/12/12 02:39:03;;;;;;;;;;;9.20;1.00;;;;;;4997957;28;19933;-80
2023/12/12 02:47:58;;;;;;;;;;;9.10;1.00;;;;;;4995766;28;19965;-80
2023/12/12 03:08:40;;;;;;;;;;;8.20;1.00;;;;;;4997517;28;20381;-80
2023/12/12 03:11:28;;;;;;;;;;;8.20;1.00;;;;;;4998285;28;19914;-80
2023/12/12 03:16:57;;;;;;;;;;;8.00;1.00;;;;;;4997191;28;19917;-80
2023/12/12 03:22:25;;;;;;;;;;;8.00;1.00;;;;;;5009874;28;20011;-80
2023/12/12 03:27:35;;;;;;;;;;;7.90;1.00;;;;;;4997003;28;19917;-81
2023/12/12 03:30:01;;;;;;;;;;;8.00;1.00;;;;;;4992902;28;19913;-80
2023/12/12 03:35:34;;;;;;;;;;;8.00;1.00;;;;;;5003127;28;19925;-75
2023/12/12 03:38:00;;;;;;;;;;;8.00;1.00;;;;;;5005130;28;19913;-76
2023/12/12 03:40:25;;;;;;;;;;;8.10;1.00;;;;;;4997169;28;19910;-76
2023/12/12 03:42:52;;;;;;;;;;;8.00;1.00;;;;;;5014317;28;19921;-76
2023/12/12 03:45:34;;;;;;;;;;;8.10;1.00;;;;;;4995844;28;19913;-76
2023/12/12 03:48:00;;;;;;;;;;;8.20;1.00;;;;;;4996876;28;19910;-76
2023/12/12 03:50:28;;;;;;;;;;;8.30;1.00;;;;;;5002890;28;19937;-75
2023/12/12 03:52:54;;;;;;;;;;;8.30;1.00;;;;;;5010329;28;19925;-75
2023/12/12 03:55:34;;;;;;;;;;;8.30;1.00;;;;;;4995492;28;19917;-75
2023/12/12 03:58:28;;;;;;;;;;;8.40;1.00;;;;;;4977234;28;20001;-75
2023/12/12 04:00:58;;;;;;;;;;;8.40;1.00;;;;;;4997443;28;19925;-75
2023/12/12 04:03:34;;;;;;;;;;;8.40;1.00;;;;;;4996406;28;19968;-75
2023/12/12 04:09:18;;;;;;;;;;;8.40;1.00;;;;;;5002627;28;20284;-80
2023/12/12 04:18:22;;;;;;;;;;;8.50;1.00;;;;;;5015517;28;20001;-80
2023/12/12 04:23:50;;;;;;;;;;;8.40;1.00;;;;;;4995811;28;20325;-80
2023/12/12 04:38:28;;;;;;;;;;;8.30;1.00;;;;;;4995482;28;20380;-80
2023/12/12 04:43:56;;;;;;;;;;;8.30;1.00;;;;;;4976206;28;20278;-81
2023/12/12 04:52:28;;;;;;;;;;;8.20;1.00;;;;;;4994875;28;20015;-80
2023/12/12 05:04:03;;;;;;;;;;;8.00;1.00;;;;;;4995112;28;20285;-80
2023/12/12 05:06:29;;;;;;;;;;;;;;;;;;4995176;28;19909;-76
2023/12/12 05:08:58;;;;;;;;;;;7.90;1.00;;;;;;4988741;28;19916;-75
2023/12/12 05:11:47;;;;;;;;;;;7.90;1.00;;;;;;4988245;28;19914;-75
2023/12/12 05:17:16;;;;;;;;;;;7.70;1.00;;;;;;4990615;28;20000;-75
2023/12/12 05:19:46;;;;;;;;;;;7.60;1.00;;;;;;4998638;28;19961;-75
2023/12/12 05:22:22;;;;;;;;;;;7.50;1.00;;;;;;5007897;28;19980;-76
2023/12/12 05:24:52;;;;;;;;;;;7.40;1.00;;;;;;4995125;28;19913;-75
2023/12/12 05:30:58;;;;;;;;;;;7.20;1.00;;;;;;5000753;28;19921;-80
2023/12/12 05:36:27;;;;;;;;;;;7.00;1.00;;;;;;5002582;28;20328;-81
2023/12/12 05:38:53;;;;;;;;;;;6.90;1.00;;;;;;5009159;28;19913;-81
2023/12/12 05:44:28;;;;;;;;;;;6.80;1.00;;;;;;4992440;28;20280;-75
2023/12/12 05:47:10;;;;;;;;;;;6.80;1.00;;;;;;4994354;28;19921;-77
2023/12/12 05:55:46;;;;;;;;;;;6.60;1.00;;;;;;5000782;28;20276;-82
2023/12/12 05:58:34;;;;;;;;;;;6.60;1.00;;;;;;5020066;28;19918;-80
2023/12/12 06:01:10;;;;;;;;;;;6.50;1.00;;;;;;4994128;28;19914;-82
2023/12/12 06:03:46;;;;;;;;;;;6.50;1.00;;;;;;4993505;28;19910;-82
2023/12/12 06:06:34;;;;;;;;;;;6.60;1.00;;;;;;4982118;28;20416;-84
2023/12/12 06:09:18;;;;;;;;;;;6.60;1.00;;;;;;4986962;28;19938;-85
2023/12/12 06:11:44;;;;;;;;;;;6.70;1.00;;;;;;4994739;28;19953;-90
2023/12/12 06:14:10;;;;;;;;;;;6.70;1.00;;;;;;4992264;28;19965;-83
2023/12/12 06:16:40;;;;;;;;;;;6.70;1.00;;;;;;4998663;28;19961;-81
2023/12/12 06:22:09;;;;;;;;;;;6.80;1.00;;;;;;4994336;28;19916;-76
2023/12/12 06:24:35;;;;;;;;;;;6.80;1.00;;;;;;4994185;28;19918;-74
2023/12/12 06:27:00;;;;;;;;;;;6.80;1.00;;;;;;4994198;28;19921;-75
2023/12/12 06:29:34;;;;;;;;;;;6.80;1.00;;;;;;4994450;28;19917;-78
2023/12/12 06:35:04;;;;;;;;;;;6.80;1.00;;;;;;4985347;28;20396;-82
2023/12/12 06:40:32;;;;;;;;;;;6.60;1.00;;;;;;5005151;28;19917;-82
2023/12/12 06:43:34;;;;;;;;;;;6.60;1.00;;;;;;5009545;28;19914;-82
2023/12/12 06:55:09;;;;;;;;;;;6.20;1.00;;;;;;4992809;28;19969;-82
2023/12/12 07:04:04;;;;;;;;;;;6.00;1.00;;;;;;5010898;28;20288;-83
2023/12/12 07:09:36;;;;;;;;;;;5.70;1.00;;;;;;4995106;28;19917;-83
2023/12/12 07:15:05;;;;;;;;;;;5.60;1.00;;;;;;4993497;28;19968;-83
2023/12/12 07:17:46;;;;;;;;;;;;;;;;;;5012159;28;20268;-83
2023/12/12 07:20:46;;;;;;;;;;;5.50;1.00;;;;;;4995630;28;19914;-82
2023/12/12 07:23:22;;;;;;;;;;;5.40;2.50;;;;;;4999240;28;19921;-76
2023/12/12 07:26:04;;;;;;;;;;;5.50;4.20;;;;;;4992927;28;20377;-76
2023/12/12 07:28:46;;;;;;;;;;;5.40;3.80;;;;;;4998751;28;19914;-76
2023/12/12 07:31:28;;;;;;;;;;;5.40;5.40;;;;;;4990467;28;19914;-76
2023/12/12 07:34:16;;;;;;;;;;;5.40;7.00;;;;;;4994226;28;20008;-76
2023/12/12 07:37:10;;;;;;;;;;;5.30;7.40;;;;;;4993802;28;19984;-83
2023/12/12 07:39:36;;;;;;;;;;;5.40;9.00;;;;;;5020353;28;19937;-83
2023/12/12 07:50:34;;;;;;;;;;;5.40;12.40;;;;;;4996368;28;19960;-83
2023/12/12 07:53:22;;;;;;;;;;;5.30;10.90;;;;;;4996796;28;19997;-83
2023/12/12 07:55:52;;;;;;;;;;;5.30;10.10;;;;;;5016729;28;20444;-84
2023/12/12 07:58:52;;;;;;;;;;;5.30;9.20;;;;;;4979491;28;19953;-84
2023/12/12 08:01:46;;;;;;;;;;;5.30;8.40;;;;;;4982393;28;19910;-84
2023/12/12 08:07:40;;;;;;;;;;;5.30;7.40;;;;;;4990580;28;19937;-83
2023/12/12 08:10:10;;;;;;;;;;;5.40;7.60;;;;;;5003278;28;19941;-84
2023/12/12 08:13:10;;;;;;;;;;;5.40;7.80;;;;;;4979140;28;19914;-84
2023/12/12 08:15:41;;;;;;;;;;;5.40;8.90;;;;;;4988645;28;19957;-84
2023/12/12 08:18:09;;;;;;;;;;;5.50;8.20;;;;;;4992313;28;19922;-83
2023/12/12 08:21:10;;;;;;;;;;;5.50;7.80;;;;;;4995704;28;19913;-84
2023/12/12 08:23:54;;;;;;;;;;;5.50;8.70;;;;;;5011092;28;19910;-84
2023/12/12 08:26:46;;;;;;;;;;;5.50;10.00;;;;;;5006764;28;19910;-84
2023/12/12 08:32:22;;;;;;;;;;;5.80;13.70;;;;;;4995331;28;19924;-84
2023/12/12 08:35:05;;;;;;;;;;;5.90;15.30;;;;;;5010023;28;19914;-84
2023/12/12 08:37:40;;;;;;;;;;;6.10;16.20;;;;;;4983793;28;19917;-77
2023/12/12 08:40:11;;;;;;;;;;;6.20;17.80;;;;;;4994845;28;19937;-76
2023/12/12 08:42:40;;;;;;;;;;;6.40;18.20;;;;;;4992788;28;20424;-76
2023/12/12 08:45:10;;;;;;;;;;;;;;;;;;4993980;28;19921;-76
2023/12/12 08:47:46;;;;;;;;;;;6.80;16.10;;;;;;5003790;28;20354;-77
2023/12/12 08:50:35;;;;;;;;;;;7.00;17.00;;;;;;4993882;28;19921;-76
2023/12/12 08:53:04;;;;;;;;;;;7.10;16.10;;;;;;4995539;28;19910;-76
2023/12/12 08:58:15;;;;;;;;;;;;;;;;;;4994433;28;20419;-76
2023/12/12 09:04:07;;;;;;;;;;;7.90;5.80;;;;;;4991793;28;20376;-76
2023/12/12 09:06:46;;;;;;;;;;;7.90;5.40;;;;;;4993864;28;19910;-83
2023/12/12 09:09:18;;;;;;;;;;;8.00;4.00;;;;;;4992398;28;19920;-84
2023/12/12 09:18:10;;;;;;;;;;;8.20;1.00;;;;;;4994761;28;20424;-85
2023/12/12 09:20:41;;;;;;;;;;;8.20;1.00;;;;;;4987431;28;19987;-83
2023/12/12 09:23:40;;;;;;;;;;;8.30;1.00;;;;;;4995312;28;19910;-84
2023/12/12 09:29:10;;;;;;;;;;;8.40;1.00;;;;;;4991614;28;20440;-84
2023/12/12 09:37:52;;;;;;;;;;;8.30;1.00;;;;;;4994684;28;20496;-84
2023/12/12 09:49:35;;;;;;;;;;;8.40;1.00;;;;;;4995849;28;19917;-84
2023/12/12 09:52:01;;;;;;;;;;;8.50;1.00;;;;;;5011022;28;20273;-84
2023/12/12 09:57:40;;;;;;;;;;;8.80;1.00;;;;;;4989329;28;19928;-84
2023/12/12 10:00:40;;;;;;;;;;;8.90;1.00;;;;;;4995058;28;20455;-84
2023/12/12 10:03:35;;;;;;;;;;;9.00;1.00;;;;;;5001688;28;20468;-84
2023/12/12 10:09:04;;;;;;;;;;;9.40;1.00;;;;;;4987560;28;19961;-84
2023/12/12 10:14:36;;;;;;;;;;;9.60;1.00;;;;;;4986596;28;19944;-84
2023/12/12 10:20:05;;;;;;;;;;;9.90;1.00;;;;;;4980382;28;20388;-84
2023/12/12 10:29:10;;;;;;;;;;;10.40;1.00;;;;;;4998745;28;20032;-83
2023/12/12 10:32:11;;;;;;;;;;;10.60;1.00;;;;;;4980821;28;19914;-83
2023/12/12 10:34:44;;;;;;;;;;;10.80;1.00;;;;;;5001948;28;19924;-83
2023/12/12 10:37:11;;;;;;;;;;;10.90;1.00;;;;;;5018272;28;19916;-84
2023/12/12 10:39:37;;;;;;;;;;;11.00;1.00;;;;;;5009330;28;20259;-75
2023/12/12 10:42:02;;;;;;;;;;;11.20;1.00;;;;;;5001555;28;19964;-76
2023/12/12 10:44:32;;;;;;;;;;;11.40;1.00;;;;;;4995050;28;19914;-76
2023/12/12 10:47:13;;;;;;;;;;;11.50;1.00;;;;;;4997399;28;20272;-75
2023/12/12 10:50:13;;;;;;;;;;;11.40;1.00;;;;;;4997944;28;20063;-76
2023/12/12 10:52:42;;;;;;;;;;;11.50;1.00;;;;;;4979244;28;19917;-76
2023/12/12 10:55:11;;;;;;;;;;;11.50;1.00;;;;;;4989595;28;20369;-75
2023/12/12 10:57:42;;;;;;;;;;;11.50;1.00;;;;;;5005502;28;19973;-75
2023/12/12 11:00:40;;;;;;;;;;;11.50;1.00;;;;;;4984477;28;19918;-75
2023/12/12 11:03:10;;;;;;;;;;;11.50;1.00;;;;;;4997507;28;19924;-75
2023/12/12 11:05:36;;;;;;;;;;;11.30;1.00;;;;;;4992259;28;19915;-75
2023/12/12 11:08:03;;;;;;;;;;;11.30;1.00;;;;;;4978444;28;20025;-76
2023/12/12 11:10:29;;;;;;;;;;;11.30;1.00;;;;;;4996410;28;20009;-75
2023/12/12 11:12:59;;;;;;;;;;;11.10;1.00;;;;;;4986289;28;19965;-76
2023/12/12 11:15:26;;;;;;;;;;;11.10;1.00;;;;;;4988345;28;19914;-75
2023/12/12 11:18:08;;;;;;;;;;;11.00;1.00;;;;;;5009530;28;20050;-76
2023/12/12 11:20:41;;;;;;;;;;;11.00;1.00;;;;;;4985583;28;19924;-76
2023/12/12 11:23:11;;;;;;;;;;;11.00;1.00;;;;;;4986295;28;19910;-83
2023/12/12 11:25:58;;;;;;;;;;;11.00;1.00;;;;;;4994675;28;19914;-83
2023/12/12 11:28:41;;;;;;;;;;;11.10;1.00;;;;;;4997266;28;19914;-83
2023/12/12 11:31:40;;;;;;;;;;;11.20;1.00;;;;;;4978056;28;19910;-83
2023/12/12 11:34:40;;;;;;;;;;;11.30;1.00;;;;;;4995273;28;19918;-82
2023/12/12 11:37:10;;;;;;;;;;;11.30;1.00;;;;;;5011981;28;19921;-83
2023/12/12 11:40:10;;;;;;;;;;;11.30;1.00;;;;;;4999196;28;19913;-83
2023/12/12 11:42:40;;;;;;;;;;;;;;;;;;4989653;28;19961;-83
2023/12/12 11:51:40;;;;;;;;;;;11.30;1.00;;;;;;4984706;28;19957;-83
2023/12/12 11:54:09;;;;;;;;;;;11.30;1.00;;;;;;4999016;28;20016;-83
2023/12/12 11:56:41;;;;;;;;;;;11.40;1.00;;;;;;4979648;28;19918;-83
2023/12/12 11:59:11;;;;;;;;;;;11.30;1.00;;;;;;5006817;28;19922;-83
2023/12/12 12:01:41;;;;;;;;;;;11.30;1.00;;;;;;4977626;28;19997;-83
2023/12/12 12:07:11;;;;;;;;;;;11.10;1.00;;;;;;5001379;28;19916;-83
2023/12/12 12:09:41;;;;;;;;;;;11.00;1.00;;;;;;5008847;28;20393;-76
2023/12/12 12:12:40;;;;;;;;;;;11.00;1.00;;;;;;4996086;28;20255;-76
2023/12/12 12:15:45;;;;;;;;;;;11.00;1.00;;;;;;4992096;28;19965;-76
2023/12/12 12:18:26;;;;;;;;;;;11.00;1.00;;;;;;4987838;28;20005;-77
2023/12/12 12:24:11;;;;;;;;;;;10.80;1.00;;;;;;4985892;28;19916;-75
2023/12/12 12:26:40;;;;;;;;;;;10.80;1.00;;;;;;4996048;28;19910;-76
2023/12/12 12:29:11;;;;;;;;;;;10.80;1.00;;;;;;4995809;28;19988;-76
2023/12/12 12:31:41;;;;;;;;;;;10.80;1.00;;;;;;5002778;28;19914;-76
2023/12/12 12:34:28;;;;;;;;;;;10.80;1.00;;;;;;5015490;28;19916;-76
2023/12/12 12:37:02;;;;;;;;;;;10.90;1.00;;;;;;4996159;28;19927;-75
2023/12/12 12:39:27;;;;;;;;;;;10.90;1.00;;;;;;5007331;28;20346;-84
2023/12/12 12:44:57;;;;;;;;;;;10.80;1.00;;;;;;4996072;28;19960;-84
2023/12/12 12:50:41;;;;;;;;;;;;;;;;;;4993604;28;19924;-84
2023/12/12 12:53:40;;;;;;;;;;;10.90;1.00;;;;;;4978604;28;20289;-84
2023/12/12 12:56:11;;;;;;;;;;;10.90;1.00;;;;;;4995374;28;19914;-76
2023/12/12 12:58:37;;;;;;;;;;;10.80;1.00;;;;;;4994674;28;19961;-76
2023/12/12 13:01:11;;;;;;;;;;;10.80;1.00;;;;;;4992409;28;19988;-77
2023/12/12 13:03:41;;;;;;;;;;;10.80;1.00;;;;;;4982421;28;19917;-76
2023/12/12 13:06:17;;;;;;;;;;;10.80;1.00;;;;;;4994721;28;20000;-76
2023/12/12 13:08:59;;;;;;;;;;;10.70;1.00;;;;;;4990906;28;19914;-81
2023/12/12 13:11:40;;;;;;;;;;;10.70;1.00;;;;;;4997496;28;19914;-83
2023/12/12 13:14:11;;;;;;;;;;;10.70;1.00;;;;;;4990737;28;19918;-82
2023/12/12 13:16:41;;;;;;;;;;;10.60;1.00;;;;;;5000392;28;19917;-82
2023/12/12 13:19:11;;;;;;;;;;;10.60;1.00;;;;;;4993885;28;19996;-82
2023/12/12 13:21:41;;;;;;;;;;;10.60;1.00;;;;;;4993213;28;19914;-82
2023/12/12 13:27:11;;;;;;;;;;;10.60;1.00;;;;;;4975456;28;20014;-75
2023/12/12 13:29:41;;;;;;;;;;;10.60;1.00;;;;;;5004326;28;19913;-75
2023/12/12 13:32:11;;;;;;;;;;;10.50;1.00;;;;;;5004845;28;19909;-77
2023/12/12 13:34:41;;;;;;;;;;;10.50;1.00;;;;;;4994033;28;19910;-80
2023/12/12 13:37:12;;;;;;;;;;;10.60;1.00;;;;;;4993841;28;19914;-80
2023/12/12 13:42:41;;;;;;;;;;;10.50;1.00;;;;;;4994487;28;19933;-75
2023/12/12 13:45:07;;;;;;;;;;;10.50;1.00;;;;;;4995046;28;20366;-76
2023/12/12 13:47:41;;;;;;;;;;;10.50;1.00;;;;;;5002632;28;19935;-75
2023/12/12 13:50:06;;;;;;;;;;;10.50;1.00;;;;;;5002300;28;19914;-75
2023/12/12 13:52:41;;;;;;;;;;;10.60;1.00;;;;;;4995411;28;19976;-75
2023/12/12 13:55:07;;;;;;;;;;;10.60;1.00;;;;;;5007597;28;19914;-75
2023/12/12 13:57:53;;;;;;;;;;;10.60;1.00;;;;;;4999453;28;19913;-77
2023/12/12 14:00:41;;;;;;;;;;;10.60;1.00;;;;;;5003889;28;19918;-77
2023/12/12 14:03:06;;;;;;;;;;;10.60;1.00;;;;;;4997035;28;20614;-77
2023/12/12 14:08:47;;;;;;;;;;;10.60;1.00;;;;;;5004403;28;20421;-77
2023/12/12 14:14:15;;;;;;;;;;;10.60;1.00;;;;;;5001388;28;19933;-83
2023/12/12 14:17:16;;;;;;;;;;;10.60;1.00;;;;;;4992769;28;19918;-83
2023/12/12 14:22:45;;;;;;;;;;;;;;;;;;4979333;28;19921;-83
2023/12/12 14:27:55;;;;;;;;;;;10.50;1.00;;;;;;4998764;28;20014;-83
2023/12/12 14:30:26;;;;;;;;;;;10.50;1.00;;;;;;5013504;28;19910;-83
2023/12/12 14:35:54;;;;;;;;;;;10.50;1.00;;;;;;5000888;28;19920;-83
2023/12/12 14:41:23;;;;;;;;;;;10.60;1.00;;;;;;4998244;28;19920;-76
2023/12/12 14:43:59;;;;;;;;;;;10.60;1.00;;;;;;4998199;28;19914;-76
2023/12/12 14:46:35;;;;;;;;;;;10.50;1.00;;;;;;4986320;28;20000;-76
2023/12/12 14:49:11;;;;;;;;;;;10.50;1.00;;;;;;4996454;28;19976;-76
2023/12/12 14:51:41;;;;;;;;;;;10.40;1.00;;;;;;4998186;28;19914;-76
2023/12/12 14:54:07;;;;;;;;;;;10.40;1.00;;;;;;4996439;28;19909;-76
2023/12/12 14:56:35;;;;;;;;;;;10.50;1.00;;;;;;4997774;28;19913;-77
2023/12/12 14:59:01;;;;;;;;;;;10.50;1.00;;;;;;4996871;28;20396;-77
2023/12/12 15:01:27;;;;;;;;;;;10.50;1.00;;;;;;5003271;28;20284;-76
2023/12/12 15:04:05;;;;;;;;;;;10.50;1.00;;;;;;4999571;28;19914;-77
2023/12/12 15:06:31;;;;;;;;;;;10.50;1.00;;;;;;4999498;28;19914;-77
2023/12/12 15:09:19;;;;;;;;;;;10.50;1.00;;;;;;4997959;28;19925;-76
2023/12/12 15:17:50;;;;;;;;;;;10.50;1.00;;;;;;4997062;28;19920;-82
2023/12/12 15:26:23;;;;;;;;;;;10.50;1.00;;;;;;4993544;28;20420;-83
2023/12/12 15:38:11;;;;;;;;;;;10.40;1.00;;;;;;4997360;28;19917;-83
2023/12/12 15:40:36;;;;;;;;;;;10.40;1.00;;;;;;4989773;28;19914;-76
2023/12/12 15:43:11;;;;;;;;;;;10.40;1.00;;;;;;4977487;28;19939;-76
2023/12/12 15:45:41;;;;;;;;;;;10.40;1.00;;;;;;4991533;28;19910;-76
2023/12/12 15:48:10;;;;;;;;;;;;;;;;;;4998308;28;19920;-76
2023/12/12 15:50:36;;;;;;;;;;;10.40;1.00;;;;;;4996727;28;19909;-76
2023/12/12 15:53:05;;;;;;;;;;;10.40;1.00;;;;;;4996683;28;19917;-76
2023/12/12 15:55:59;;;;;;;;;;;10.40;1.00;;;;;;4996493;28;19922;-77
2023/12/12 15:58:24;;;;;;;;;;;10.40;1.00;;;;;;4996375;28;20005;-76
2023/12/12 16:01:05;;;;;;;;;;;10.40;1.00;;;;;;4996630;28;19945;-76
2023/12/12 16:06:47;;;;;;;;;;;10.40;1.50;;;;;;4994988;28;19996;-76
2023/12/12 16:09:13;;;;;;;;;;;10.40;1.60;;;;;;4979119;28;19945;-77
2023/12/12 16:14:42;;;;;;;;;;;10.40;1.40;;;;;;5000900;28;19924;-82
2023/12/12 16:32:24;;;;;;;;;;;10.40;1.50;;;;;;5006532;28;19916;-79
2023/12/12 16:35:05;;;;;;;;;;;10.40;1.70;;;;;;5014814;28;19913;-79
2023/12/12 16:40:37;;;;;;;;;;;10.40;1.40;;;;;;4976372;28;19921;-80
2023/12/12 16:43:17;;;;;;;;;;;10.40;1.00;;;;;;4996039;28;19961;-76
2023/12/12 16:45:43;;;;;;;;;;;10.40;2.10;;;;;;4998251;28;20004;-75
2023/12/12 16:48:17;;;;;;;;;;;10.40;2.60;;;;;;5006755;28;20098;-75
2023/12/12 16:50:59;;;;;;;;;;;10.40;2.60;;;;;;4994913;28;19921;-75
2023/12/12 16:53:29;;;;;;;;;;;10.40;3.50;;;;;;4988013;28;19918;-75
2023/12/12 16:55:55;;;;;;;;;;;10.40;2.90;;;;;;5001033;28;19913;-75
2023/12/12 16:58:23;;;;;;;;;;;10.40;2.50;;;;;;5003177;28;19963;-75
2023/12/12 17:00:49;;;;;;;;;;;10.40;2.10;;;;;;5001301;28;19917;-74
2023/12/12 17:03:16;;;;;;;;;;;10.30;3.10;;;;;;5009817;28;20360;-74
2023/12/12 17:05:43;;;;;;;;;;;10.30;3.70;;;;;;5011349;28;19922;-75
2023/12/12 17:08:11;;;;;;;;;;;10.30;3.80;;;;;;4995034;28;19956;-75
2023/12/12 17:19:28;;;;;;;;;;;10.30;3.30;;;;;;4995721;28;20001;-83
2023/12/12 17:31:35;;;;;;;;;;;10.40;2.40;;;;;;4982961;28;19960;-77
2023/12/12 17:34:11;;;;;;;;;;;10.40;2.90;;;;;;4993866;28;19914;-76
2023/12/12 17:37:10;;;;;;;;;;;10.40;3.30;;;;;;4979506;28;20053;-78
2023/12/12 17:39:41;;;;;;;;;;;10.40;3.40;;;;;;4980177;28;19916;-77
2023/12/12 17:42:11;;;;;;;;;;;10.40;3.40;;;;;;4995020;28;19918;-79
2023/12/12 17:44:59;;;;;;;;;;;10.50;3.00;;;;;;5001662;28;20329;-78
2023/12/12 17:47:25;;;;;;;;;;;10.40;3.30;;;;;;5011140;28;19914;-74
2023/12/12 17:49:53;;;;;;;;;;;10.40;3.40;;;;;;4996593;28;19960;-73
2023/12/12 17:52:18;;;;;;;;;;;10.40;3.30;;;;;;5007535;28;19914;-76
2023/12/12 17:54:53;;;;;;;;;;;10.50;3.40;;;;;;5002850;28;19913;-75
2023/12/12 17:57:19;;;;;;;;;;;10.40;3.40;;;;;;5000811;28;19988;-75
2023/12/12 18:00:13;;;;;;;;;;;10.40;4.00;;;;;;5024793;28;20308;-74
2023/12/12 18:02:40;;;;;;;;;;;10.40;4.20;;;;;;5001338;28;19913;-75
2023/12/12 18:05:09;;;;;;;;;;;10.40;4.30;;;;;;4995922;28;19918;-74
2023/12/12 18:07:41;;;;;;;;;;;10.50;4.80;;;;;;4997232;28;19921;-74
2023/12/12 18:10:07;;;;;;;;;;;;;;;;;;4993159;28;19968;-74
2023/12/12 18:12:35;;;;;;;;;;;10.40;5.10;;;;;;4999825;28;20005;-74
2023/12/12 18:15:00;;;;;;;;;;;10.40;4.80;;;;;;4993462;28;19925;-75
2023/12/12 18:17:26;;;;;;;;;;;10.40;4.80;;;;;;5002547;28;20282;-75
2023/12/12 18:20:29;;;;;;;;;;;10.50;5.00;;;;;;5002681;28;19914;-80
2023/12/12 18:23:05;;;;;;;;;;;10.40;6.00;;;;;;5008426;28;19914;-83
2023/12/12 18:28:34;;;;;;;;;;;10.40;7.70;;;;;;4994556;28;19933;-80
2023/12/12 18:31:05;;;;;;;;;;;10.40;7.50;;;;;;4997837;28;20361;-79
2023/12/12 18:36:33;;;;;;;;;;;10.50;7.40;;;;;;4998514;28;19924;-75
2023/12/12 18:39:12;;;;;;;;;;;10.50;6.90;;;;;;5010115;28;20374;-74
2023/12/12 18:50:28;;;;;;;;;;;10.40;7.80;;;;;;4996345;28;19968;-80
2023/12/12 18:58:54;;;;;;;;;;;10.40;9.20;;;;;;5017567;28;19916;-79
2023/12/12 19:04:22;;;;;;;;;;;10.40;7.80;;;;;;4984374;28;20082;-74
2023/12/12 19:06:48;;;;;;;;;;;10.40;8.80;;;;;;5001461;28;20036;-73
2023/12/12 19:09:17;;;;;;;;;;;10.40;8.50;;;;;;4996768;28;19964;-74
2023/12/12 19:11:43;;;;;;;;;;;10.40;7.80;;;;;;4980120;28;20320;-75
2023/12/12 19:14:17;;;;;;;;;;;10.50;7.60;;;;;;5005435;28;19918;-77
2023/12/12 19:16:42;;;;;;;;;;;10.50;7.10;;;;;;5012204;28;20365;-73
2023/12/12 19:19:11;;;;;;;;;;;10.50;5.80;;;;;;4997212;28;19938;-73
2023/12/12 19:21:41;;;;;;;;;;;10.50;4.70;;;;;;4996158;28;20057;-74
2023/12/12 19:24:07;;;;;;;;;;;10.50;5.30;;;;;;4996579;28;19949;-74
2023/12/12 19:26:32;;;;;;;;;;;10.50;6.50;;;;;;5002304;28;19910;-73
2023/12/12 19:28:58;;;;;;;;;;;10.50;7.10;;;;;;5004849;28;19963;-73
2023/12/12 19:31:24;;;;;;;;;;;10.50;6.60;;;;;;5004841;28;19956;-74
2023/12/12 19:37:29;;;;;;;;;;;10.50;6.80;;;;;;4988140;28;19968;-83
2023/12/12 19:42:57;;;;;;;;;;;10.50;7.90;;;;;;5000393;28;20062;-86
2023/12/12 19:51:29;;;;;;;;;;;10.50;6.50;;;;;;5006612;28;19937;-82
2023/12/12 20:06:08;;;;;;;;;;;10.40;11.00;;;;;;4987825;28;19974;-82
2023/12/12 20:11:40;;;;;;;;;;;10.40;11.10;;;;;;4983229;28;19921;-83
2023/12/12 20:17:09;;;;;;;;;;;10.20;19.50;;;;;;4996356;28;20333;-83
2023/12/12 20:22:37;;;;;;;;;;;10.10;29.20;;;;;;4999942;28;20030;-84
2023/12/12 20:31:09;;;;;;;;;;;10.00;38.70;;;;;;4991885;28;19917;-82
2023/12/12 20:39:41;;;;;;;;;;;10.00;27.60;;;;;;4998366;28;19916;-83
2023/12/12 20:42:07;;;;;;;;;;;10.00;25.70;;;;;;4994638;28;19914;-82
2023/12/12 20:45:02;;;;;;;;;;;10.00;26.00;;;;;;4996000;28;20282;-82
2023/12/12 20:47:53;;;;;;;;;;;10.00;24.40;;;;;;5002954;28;19909;-82
2023/12/12 20:53:22;;;;;;;;;;;9.80;27.30;;;;;;4984716;28;20540;-83
2023/12/12 20:55:53;;;;;;;;;;;9.80;33.40;;;;;;4999870;28;19917;-82
2023/12/12 20:58:29;;;;;;;;;;;9.80;38.80;;;;;;5007284;28;19985;-86
2023/12/12 21:03:58;;;;;;;;;;;9.70;39.40;;;;;;4995986;28;19972;-77
2023/12/12 21:09:26;;;;;;;;;;;9.60;39.30;;;;;;4996309;28;20004;-79
2023/12/12 21:11:53;;;;;;;;;;;9.50;39.20;;;;;;4997304;28;19953;-80
2023/12/12 21:14:23;;;;;;;;;;;9.40;39.10;;;;;;4987172;28;19913;-74
2023/12/12 21:16:54;;;;;;;;;;;9.30;39.00;;;;;;5002666;28;20310;-74
2023/12/12 21:19:29;;;;;;;;;;;9.30;39.00;;;;;;4998708;28;19909;-74
2023/12/12 21:21:59;;;;;;;;;;;9.30;39.00;;;;;;4991613;28;20008;-75
2023/12/12 21:24:29;;;;;;;;;;;9.30;39.00;;;;;;4994836;28;19910;-74
2023/12/12 21:27:00;;;;;;;;;;;9.30;39.00;;;;;;4995162;28;19910;-74
2023/12/12 21:32:28;;;;;;;;;;;9.20;39.00;;;;;;4987366;28;19967;-80
2023/12/12 21:35:05;;;;;;;;;;;9.10;38.90;;;;;;4998926;28;19910;-79
2023/12/12 21:40:33;;;;;;;;;;;8.90;38.70;;;;;;4981736;28;20009;-80
2023/12/12 21:46:01;;;;;;;;;;;9.10;38.80;;;;;;4996667;28;19920;-74
2023/12/12 21:48:27;;;;;;;;;;;9.00;38.70;;;;;;4994838;28;19910;-74
2023/12/12 21:50:53;;;;;;;;;;;9.00;38.70;;;;;;4995277;28;19910;-74
2023/12/12 21:53:18;;;;;;;;;;;9.00;38.80;;;;;;5002654;28;19921;-74
2023/12/12 21:55:47;;;;;;;;;;;8.90;38.70;;;;;;4996924;28;19921;-74
2023/12/12 21:58:17;;;;;;;;;;;8.90;38.70;;;;;;4999235;28;19937;-74
2023/12/12 22:00:43;;;;;;;;;;;8.80;38.60;;;;;;4977185;28;19914;-74
2023/12/12 22:03:11;;;;;;;;;;;8.80;38.60;;;;;;4980695;28;19910;-74
2023/12/12 22:05:37;;;;;;;;;;;8.70;38.50;;;;;;4993880;28;19918;-74
2023/12/12 22:08:03;;;;;;;;;;;8.80;38.60;;;;;;4991169;28;19910;-74
2023/12/12 22:10:28;;;;;;;;;;;8.80;38.60;;;;;;5006557;28;19956;-74
2023/12/12 22:13:07;;;;;;;;;;;8.80;38.60;;;;;;4997830;28;19954;-74
2023/12/12 22:19:05;;;;;;;;;;;8.90;38.70;;;;;;4994373;28;19972;-80
2023/12/12 22:27:47;;;;;;;;;;;8.70;38.50;;;;;;4992450;28;19921;-80
2023/12/12 22:36:23;;;;;;;;;;;8.30;38.20;;;;;;4998000;28;19929;-80
2023/12/12 22:51:01;;;;;;;;;;;7.90;37.90;;;;;;4996360;28;19960;-79
2023/12/12 22:56:29;;;;;;;;;;;7.80;37.80;;;;;;5006170;28;19960;-80
2023/12/12 23:05:01;;;;;;;;;;;7.80;37.80;;;;;;4978261;28;19969;-80
2023/12/12 23:10:29;;;;;;;;;;;7.90;45.60;;;;;;4988314;28;19947;-81
2023/12/12 23:15:57;;;;;;;;;;;7.80;51.00;;;;;;4997425;28;19920;-80
2023/12/12 23:18:47;;;;;;;;;;;7.90;58.30;;;;;;4997462;28;20301;-81
2023/12/12 23:27:19;;;;;;;;;;;8.00;69.20;;;;;;5002361;28;19916;-80
2023/12/12 23:32:48;;;;;;;;;;;8.00;74.20;;;;;;4994984;28;19917;-80
2023/12/12 23:35:17;;;;;;;;;;;8.00;74.10;;;;;;4997471;28;19918;-80